Flight Track Log - Related Links

Times and Time Zones

All times are in EDT time to prevent confusion due to time zone crossing. See the SAS1874 flight status page for this flight to view local times or setup timezone preferences in your user account.

Time Position Orientation Groundspeed Altitude Reporting Facility
EDT Latitude Longitude Course Direction KTS MPH feet Rate Location/Type
Sun 11:56:00 AM 55.9040 12.1170 314° West  Level Estimated
Sun 11:57:00 AM 55.9751 11.9810 313° West  Level Estimated
Sun 11:58:00 AM 56.0461 11.8446 313° West  Level Estimated
Sun 11:59:00 AM 56.1169 11.7076 313° West  Level Estimated
Sun 12:00:00 PM 56.1876 11.5701 313° West  Level Estimated
Sun 12:01:00 PM 56.2582 11.4321 313° West  Level Estimated
Sun 12:02:00 PM 56.3285 11.2936 313° West  Level Estimated
Sun 12:03:00 PM 56.3988 11.1546 312° West  Level Estimated
Sun 12:04:00 PM 56.4688 11.0151 312° West  Level Estimated
Sun 12:05:00 PM 56.5388 10.8750 312° West  Level Estimated
Sun 12:06:00 PM 56.6085 10.7345 312° West  Level Estimated
Sun 12:07:00 PM 56.6781 10.5934 312° West  Level Estimated
Sun 12:08:00 PM 56.7476 10.4518 312° West  Level Estimated
Sun 12:09:00 PM 56.8168 10.3097 312° West  Level Estimated
Sun 12:10:00 PM 56.8859 10.1670 312° West  Level Estimated
Sun 12:11:00 PM 56.9549 10.0239 311° West  Level Estimated
Sun 12:12:00 PM 57.0237 9.8801 311° West  Level Estimated
Sun 12:13:00 PM 57.0923 9.7359 311° West  Level Estimated
Sun 12:14:00 PM 57.1608 9.5911 311° West  Level Estimated
Sun 12:15:00 PM 57.2290 9.4458 311° West  Level Estimated
Sun 12:16:00 PM 57.2972 9.3000 311° West  Level Estimated
Sun 12:17:00 PM 57.3651 9.1536 311° West  Level Estimated
Sun 12:18:00 PM 57.4329 9.0066 311° West  Level Estimated
Sun 12:19:00 PM 57.5005 8.8592 311° West  Level Estimated
Sun 12:20:00 PM 57.5679 8.7112 310° West  Level Estimated
Sun 12:21:00 PM 57.6352 8.5626 310° West  Level Estimated
Sun 12:22:00 PM 57.7023 8.4135 310° West  Level Estimated
Sun 12:23:00 PM 57.7692 8.2638 310° West  Level Estimated
Sun 12:24:00 PM 57.8359 8.1136 310° West  Level Estimated
Sun 12:25:00 PM 57.9025 7.9628 310° West  Level Estimated
Sun 12:26:00 PM 57.9688 7.8114 310° West  Level Estimated
Sun 12:27:00 PM 58.0350 7.6595 309° West  Level Estimated
Sun 12:28:00 PM 58.1011 7.5071 309° West  Level Estimated
Sun 12:29:00 PM 58.1669 7.3540 309° West  Level Estimated
Sun 12:30:00 PM 58.2325 7.2004 309° West  Level Estimated
Sun 12:31:00 PM 58.2980 7.0462 309° West  Level Estimated
Sun 12:32:00 PM 58.3633 6.8915 309° West  Level Estimated
Sun 12:33:00 PM 58.4284 6.7362 309° West  Level Estimated
Sun 12:34:00 PM 58.4933 6.5803 309° West  Level Estimated
Sun 12:35:00 PM 58.5580 6.4239 308° West  Level Estimated
Sun 12:36:00 PM 58.6225 6.2668 308° West  Level Estimated
Sun 12:37:00 PM 58.6868 6.1092 308° West  Level Estimated
Sun 12:38:00 PM 58.7509 5.9510 308° West  Level Estimated
Sun 12:39:00 PM 58.8149 5.7922 308° West  Level Estimated
Sun 12:40:00 PM 58.8767 5.6378 308° West  Level Estimated
Sun 12:41:00 PM 58.8767 5.6378 199° South  Level Estimated
Sun 12:42:00 PM 58.8767 5.6378 199° South  Level Estimated
Sun 12:43:00 PM 58.8767 5.6378 199° South  Level Estimated
Sun 12:44:00 PM 58.8767 5.6378 199° South  Level Estimated
Sun 12:45:00 PM 58.8767 5.6378 199° South  Level Estimated
Sun 12:46:00 PM 58.8767 5.6378 199° South  Level Estimated
Sun 12:47:00 PM 58.8767 5.6378 199° South  Level Estimated
Sun 12:48:00 PM 58.8767 5.6378 199° South  Level Estimated
Sun 12:49:00 PM 58.8767 5.6378 199° South  Level Estimated
Sun 12:50:00 PM 58.8767 5.6378 199° South  Level Estimated
Sun 12:51:00 PM 58.8767 5.6378 199° South  Level Estimated
Sun 12:52:00 PM 58.8767 5.6378 199° South  Level Estimated
Sun 12:53:00 PM 58.8767 5.6378 199° South  Level Estimated
Sun 12:54:00 PM 58.8767 5.6378 199° South  Level Estimated
Sun 12:55:00 PM 58.8767 5.6378 199° South  Level Estimated
Sun 12:56:00 PM 58.8767 5.6378 199° South  Level Estimated

Login

Don't have an account? Register now (free) for customized features, flight alerts, and more!